sensor_id;sensor_type;location;lat;lon;timestamp;temperature;humidity
15564;DHT22;7883;52.554;13.364;2023-02-23T00:01:23;7.40;99.90
15564;DHT22;7883;52.554;13.364;2023-02-23T00:03:56;7.40;99.90
15564;DHT22;7883;52.554;13.364;2023-02-23T00:06:24;7.40;99.90
15564;DHT22;7883;52.554;13.364;2023-02-23T00:08:51;7.40;99.90
15564;DHT22;7883;52.554;13.364;2023-02-23T00:11:18;7.40;99.90
15564;DHT22;7883;52.554;13.364;2023-02-23T00:13:47;7.40;99.90
15564;DHT22;7883;52.554;13.364;2023-02-23T00:16:18;7.40;99.90
15564;DHT22;7883;52.554;13.364;2023-02-23T00:18:46;7.30;99.90
15564;DHT22;7883;52.554;13.364;2023-02-23T00:21:19;7.40;99.90
15564;DHT22;7883;52.554;13.364;2023-02-23T00:23:50;7.40;99.90
15564;DHT22;7883;52.554;13.364;2023-02-23T00:26:17;7.30;99.90
15564;DHT22;7883;52.554;13.364;2023-02-23T00:28:45;7.20;99.90
15564;DHT22;7883;52.554;13.364;2023-02-23T00:31:14;7.20;99.90
15564;DHT22;7883;52.554;13.364;2023-02-23T00:33:41;7.20;99.90
15564;DHT22;7883;52.554;13.364;2023-02-23T00:36:10;7.20;99.90
15564;DHT22;7883;52.554;13.364;2023-02-23T00:38:40;7.30;99.90
15564;DHT22;7883;52.554;13.364;2023-02-23T00:41:12;7.20;99.90
15564;DHT22;7883;52.554;13.364;2023-02-23T00:43:41;7.10;99.90
15564;DHT22;7883;52.554;13.364;2023-02-23T00:46:13;7.10;99.90
15564;DHT22;7883;52.554;13.364;2023-02-23T00:48:42;7.20;99.90
15564;DHT22;7883;52.554;13.364;2023-02-23T00:51:10;7.20;99.90
15564;DHT22;7883;52.554;13.364;2023-02-23T00:53:42;7.20;99.90
15564;DHT22;7883;52.554;13.364;2023-02-23T00:56:10;7.20;99.90
15564;DHT22;7883;52.554;13.364;2023-02-23T00:58:38;7.10;99.90
15564;DHT22;7883;52.554;13.364;2023-02-23T01:01:05;7.00;99.90
15564;DHT22;7883;52.554;13.364;2023-02-23T01:03:33;7.00;99.90
15564;DHT22;7883;52.554;13.364;2023-02-23T01:06:01;7.00;99.90
15564;DHT22;7883;52.554;13.364;2023-02-23T01:08:30;7.00;99.90
15564;DHT22;7883;52.554;13.364;2023-02-23T01:11:04;7.10;99.90
15564;DHT22;7883;52.554;13.364;2023-02-23T01:13:34;7.10;99.90
15564;DHT22;7883;52.554;13.364;2023-02-23T01:16:03;7.10;99.90
15564;DHT22;7883;52.554;13.364;2023-02-23T01:18:32;7.10;99.90
15564;DHT22;7883;52.554;13.364;2023-02-23T01:21:00;7.10;99.90
15564;DHT22;7883;52.554;13.364;2023-02-23T01:23:27;6.90;99.90
15564;DHT22;7883;52.554;13.364;2023-02-23T01:25:54;7.00;99.90
15564;DHT22;7883;52.554;13.364;2023-02-23T01:28:22;7.00;99.90
15564;DHT22;7883;52.554;13.364;2023-02-23T01:30:49;7.00;99.90
15564;DHT22;7883;52.554;13.364;2023-02-23T01:33:16;7.00;99.90
15564;DHT22;7883;52.554;13.364;2023-02-23T01:35:43;7.00;99.90
15564;DHT22;7883;52.554;13.364;2023-02-23T01:38:10;7.00;99.90
15564;DHT22;7883;52.554;13.364;2023-02-23T01:40:42;6.90;99.90
15564;DHT22;7883;52.554;13.364;2023-02-23T01:43:13;6.90;99.90
15564;DHT22;7883;52.554;13.364;2023-02-23T01:45:43;7.00;99.90
15564;DHT22;7883;52.554;13.364;2023-02-23T01:48:12;6.80;99.90
15564;DHT22;7883;52.554;13.364;2023-02-23T01:50:47;6.80;99.90
15564;DHT22;7883;52.554;13.364;2023-02-23T01:53:16;6.70;99.90
15564;DHT22;7883;52.554;13.364;2023-02-23T01:55:46;6.70;99.90
15564;DHT22;7883;52.554;13.364;2023-02-23T01:58:17;6.70;99.90
15564;DHT22;7883;52.554;13.364;2023-02-23T02:00:50;6.70;99.90
15564;DHT22;7883;52.554;13.364;2023-02-23T02:03:25;6.70;99.90
15564;DHT22;7883;52.554;13.364;2023-02-23T02:05:53;6.60;99.90
15564;DHT22;7883;52.554;13.364;2023-02-23T02:08:21;6.60;99.90
15564;DHT22;7883;52.554;13.364;2023-02-23T02:10:50;6.70;99.90
15564;DHT22;7883;52.554;13.364;2023-02-23T02:13:22;6.70;99.90
15564;DHT22;7883;52.554;13.364;2023-02-23T02:16:05;6.70;99.90
15564;DHT22;7883;52.554;13.364;2023-02-23T02:18:55;6.60;99.90
15564;DHT22;7883;52.554;13.364;2023-02-23T02:21:51;6.50;99.90
15564;DHT22;7883;52.554;13.364;2023-02-23T02:25:01;6.40;99.90
15564;DHT22;7883;52.554;13.364;2023-02-23T02:27:56;6.40;99.90
15564;DHT22;7883;52.554;13.364;2023-02-23T02:30:48;6.50;99.90
15564;DHT22;7883;52.554;13.364;2023-02-23T02:34:11;6.40;99.90
15564;DHT22;7883;52.554;13.364;2023-02-23T02:37:10;6.60;99.90
15564;DHT22;7883;52.554;13.364;2023-02-23T02:39:55;6.70;99.90
15564;DHT22;7883;52.554;13.364;2023-02-23T02:42:48;6.60;99.90
15564;DHT22;7883;52.554;13.364;2023-02-23T02:45:21;6.60;99.90
15564;DHT22;7883;52.554;13.364;2023-02-23T02:47:55;6.60;99.90
15564;DHT22;7883;52.554;13.364;2023-02-23T02:50:29;6.50;99.90
15564;DHT22;7883;52.554;13.364;2023-02-23T02:53:01;6.50;99.90
15564;DHT22;7883;52.554;13.364;2023-02-23T02:55:31;6.40;99.90
15564;DHT22;7883;52.554;13.364;2023-02-23T02:58:04;6.50;99.90
15564;DHT22;7883;52.554;13.364;2023-02-23T03:00:36;6.60;99.90
15564;DHT22;7883;52.554;13.364;2023-02-23T03:03:28;6.40;99.90
15564;DHT22;7883;52.554;13.364;2023-02-23T03:06:14;6.40;99.90
15564;DHT22;7883;52.554;13.364;2023-02-23T03:09:04;6.50;99.90
15564;DHT22;7883;52.554;13.364;2023-02-23T03:11:59;6.50;99.90
15564;DHT22;7883;52.554;13.364;2023-02-23T03:14:53;6.40;99.90
15564;DHT22;7883;52.554;13.364;2023-02-23T03:17:43;6.60;99.90
15564;DHT22;7883;52.554;13.364;2023-02-23T03:20:41;6.60;99.90
15564;DHT22;7883;52.554;13.364;2023-02-23T03:23:33;6.50;99.90
15564;DHT22;7883;52.554;13.364;2023-02-23T03:26:26;6.60;99.90
15564;DHT22;7883;52.554;13.364;2023-02-23T03:29:18;6.50;99.90
15564;DHT22;7883;52.554;13.364;2023-02-23T03:32:08;6.60;99.90
15564;DHT22;7883;52.554;13.364;2023-02-23T03:34:58;6.40;99.90
15564;DHT22;7883;52.554;13.364;2023-02-23T03:37:50;6.50;99.90
15564;DHT22;7883;52.554;13.364;2023-02-23T03:40:39;6.60;99.90
15564;DHT22;7883;52.554;13.364;2023-02-23T03:43:29;6.60;99.90
15564;DHT22;7883;52.554;13.364;2023-02-23T03:46:17;6.50;99.90
15564;DHT22;7883;52.554;13.364;2023-02-23T03:49:04;6.50;99.90
15564;DHT22;7883;52.554;13.364;2023-02-23T03:51:54;6.50;99.90
15564;DHT22;7883;52.554;13.364;2023-02-23T03:54:44;6.50;99.90
15564;DHT22;7883;52.554;13.364;2023-02-23T03:57:32;6.50;99.90
15564;DHT22;7883;52.554;13.364;2023-02-23T04:00:24;6.60;99.90
15564;DHT22;7883;52.554;13.364;2023-02-23T04:03:12;6.40;99.90
15564;DHT22;7883;52.554;13.364;2023-02-23T04:05:58;6.20;99.90
15564;DHT22;7883;52.554;13.364;2023-02-23T04:08:45;6.30;99.90
15564;DHT22;7883;52.554;13.364;2023-02-23T04:11:39;6.40;99.90
15564;DHT22;7883;52.554;13.364;2023-02-23T04:14:30;6.50;99.90
15564;DHT22;7883;52.554;13.364;2023-02-23T04:17:02;6.40;99.90
15564;DHT22;7883;52.554;13.364;2023-02-23T04:19:29;6.50;99.90
15564;DHT22;7883;52.554;13.364;2023-02-23T04:21:58;6.50;99.90
15564;DHT22;7883;52.554;13.364;2023-02-23T04:24:25;6.50;99.90
15564;DHT22;7883;52.554;13.364;2023-02-23T04:26:52;6.50;99.90
15564;DHT22;7883;52.554;13.364;2023-02-23T04:29:21;6.50;99.90
15564;DHT22;7883;52.554;13.364;2023-02-23T04:31:48;6.40;99.90
15564;DHT22;7883;52.554;13.364;2023-02-23T04:34:16;6.50;99.90
15564;DHT22;7883;52.554;13.364;2023-02-23T04:36:43;6.40;99.90
15564;DHT22;7883;52.554;13.364;2023-02-23T04:39:10;6.40;99.90
15564;DHT22;7883;52.554;13.364;2023-02-23T04:41:37;6.30;99.90
15564;DHT22;7883;52.554;13.364;2023-02-23T04:44:04;6.30;99.90
15564;DHT22;7883;52.554;13.364;2023-02-23T04:46:31;6.30;99.90
15564;DHT22;7883;52.554;13.364;2023-02-23T04:48:58;6.20;99.90
15564;DHT22;7883;52.554;13.364;2023-02-23T04:51:27;6.30;99.90
15564;DHT22;7883;52.554;13.364;2023-02-23T04:53:56;6.30;99.90
15564;DHT22;7883;52.554;13.364;2023-02-23T04:56:24;6.30;99.90
15564;DHT22;7883;52.554;13.364;2023-02-23T04:58:51;6.30;99.90
15564;DHT22;7883;52.554;13.364;2023-02-23T05:01:18;6.30;99.90
15564;DHT22;7883;52.554;13.364;2023-02-23T05:03:46;6.10;99.90
15564;DHT22;7883;52.554;13.364;2023-02-23T05:06:13;6.10;99.90
15564;DHT22;7883;52.554;13.364;2023-02-23T05:08:42;6.20;99.90
15564;DHT22;7883;52.554;13.364;2023-02-23T05:11:09;6.10;99.90
15564;DHT22;7883;52.554;13.364;2023-02-23T05:13:36;6.20;99.90
15564;DHT22;7883;52.554;13.364;2023-02-23T05:16:03;6.20;99.90
15564;DHT22;7883;52.554;13.364;2023-02-23T05:18:30;6.20;99.90
15564;DHT22;7883;52.554;13.364;2023-02-23T05:21:02;6.10;99.90
15564;DHT22;7883;52.554;13.364;2023-02-23T05:23:29;6.00;99.90
15564;DHT22;7883;52.554;13.364;2023-02-23T05:26:00;6.10;99.90
15564;DHT22;7883;52.554;13.364;2023-02-23T05:28:30;6.00;99.90
15564;DHT22;7883;52.554;13.364;2023-02-23T05:30:58;6.10;99.90
15564;DHT22;7883;52.554;13.364;2023-02-23T05:33:26;6.10;99.90
15564;DHT22;7883;52.554;13.364;2023-02-23T05:35:52;6.00;99.90
15564;DHT22;7883;52.554;13.364;2023-02-23T05:38:20;6.10;99.90
15564;DHT22;7883;52.554;13.364;2023-02-23T05:40:47;6.00;99.90
15564;DHT22;7883;52.554;13.364;2023-02-23T05:43:15;5.90;99.90
15564;DHT22;7883;52.554;13.364;2023-02-23T05:45:42;5.90;99.90
15564;DHT22;7883;52.554;13.364;2023-02-23T05:48:11;6.00;99.90
15564;DHT22;7883;52.554;13.364;2023-02-23T05:50:38;6.00;99.90
15564;DHT22;7883;52.554;13.364;2023-02-23T05:53:05;6.00;99.90
15564;DHT22;7883;52.554;13.364;2023-02-23T05:55:32;6.10;99.90
15564;DHT22;7883;52.554;13.364;2023-02-23T05:57:59;6.00;99.90
15564;DHT22;7883;52.554;13.364;2023-02-23T06:00:28;5.90;99.90
15564;DHT22;7883;52.554;13.364;2023-02-23T06:02:55;5.90;99.90
15564;DHT22;7883;52.554;13.364;2023-02-23T06:05:24;5.90;99.90
15564;DHT22;7883;52.554;13.364;2023-02-23T06:07:51;6.00;99.90
15564;DHT22;7883;52.554;13.364;2023-02-23T06:10:18;6.00;99.90
15564;DHT22;7883;52.554;13.364;2023-02-23T06:12:45;6.00;99.90
15564;DHT22;7883;52.554;13.364;2023-02-23T06:15:12;6.00;99.90
15564;DHT22;7883;52.554;13.364;2023-02-23T06:17:40;6.00;99.90
15564;DHT22;7883;52.554;13.364;2023-02-23T06:20:08;6.00;99.90
15564;DHT22;7883;52.554;13.364;2023-02-23T06:22:36;5.90;99.90
15564;DHT22;7883;52.554;13.364;2023-02-23T06:25:03;5.90;99.90
15564;DHT22;7883;52.554;13.364;2023-02-23T06:27:30;5.90;99.90
15564;DHT22;7883;52.554;13.364;2023-02-23T06:29:57;5.90;99.90
15564;DHT22;7883;52.554;13.364;2023-02-23T06:32:24;6.00;99.90
15564;DHT22;7883;52.554;13.364;2023-02-23T06:34:54;6.00;99.90
15564;DHT22;7883;52.554;13.364;2023-02-23T06:37:21;6.00;99.90
15564;DHT22;7883;52.554;13.364;2023-02-23T06:39:47;6.00;99.90
15564;DHT22;7883;52.554;13.364;2023-02-23T06:42:15;6.00;99.90
15564;DHT22;7883;52.554;13.364;2023-02-23T06:44:41;6.10;99.90
15564;DHT22;7883;52.554;13.364;2023-02-23T06:47:08;6.00;99.90
15564;DHT22;7883;52.554;13.364;2023-02-23T06:49:35;5.90;99.90
15564;DHT22;7883;52.554;13.364;2023-02-23T06:52:06;6.00;99.90
15564;DHT22;7883;52.554;13.364;2023-02-23T06:54:33;6.10;99.90
15564;DHT22;7883;52.554;13.364;2023-02-23T06:57:01;6.10;99.90
15564;DHT22;7883;52.554;13.364;2023-02-23T06:59:28;6.20;99.90
15564;DHT22;7883;52.554;13.364;2023-02-23T07:01:58;6.20;99.90
15564;DHT22;7883;52.554;13.364;2023-02-23T07:04:26;6.10;99.90
15564;DHT22;7883;52.554;13.364;2023-02-23T07:06:53;6.20;99.90
15564;DHT22;7883;52.554;13.364;2023-02-23T07:09:21;6.20;99.90
15564;DHT22;7883;52.554;13.364;2023-02-23T07:11:48;6.10;99.90
15564;DHT22;7883;52.554;13.364;2023-02-23T07:14:15;6.20;99.90
15564;DHT22;7883;52.554;13.364;2023-02-23T07:16:42;6.20;99.90
15564;DHT22;7883;52.554;13.364;2023-02-23T07:19:09;6.30;99.90
15564;DHT22;7883;52.554;13.364;2023-02-23T07:21:36;6.30;99.90
15564;DHT22;7883;52.554;13.364;2023-02-23T07:24:03;6.30;99.90
15564;DHT22;7883;52.554;13.364;2023-02-23T07:26:32;6.20;99.90
15564;DHT22;7883;52.554;13.364;2023-02-23T07:28:59;6.30;99.90
15564;DHT22;7883;52.554;13.364;2023-02-23T07:31:27;6.30;99.90
15564;DHT22;7883;52.554;13.364;2023-02-23T07:33:54;6.20;99.90
15564;DHT22;7883;52.554;13.364;2023-02-23T07:36:21;6.30;99.90
15564;DHT22;7883;52.554;13.364;2023-02-23T07:38:49;6.30;99.90
15564;DHT22;7883;52.554;13.364;2023-02-23T07:41:16;6.40;99.90
15564;DHT22;7883;52.554;13.364;2023-02-23T07:43:44;6.40;99.90
15564;DHT22;7883;52.554;13.364;2023-02-23T07:46:11;6.40;99.90
15564;DHT22;7883;52.554;13.364;2023-02-23T07:48:40;6.50;99.90
15564;DHT22;7883;52.554;13.364;2023-02-23T07:51:10;6.50;99.90
15564;DHT22;7883;52.554;13.364;2023-02-23T07:53:37;6.50;99.90
15564;DHT22;7883;52.554;13.364;2023-02-23T07:56:05;6.50;99.90
15564;DHT22;7883;52.554;13.364;2023-02-23T07:58:33;6.60;99.90
15564;DHT22;7883;52.554;13.364;2023-02-23T08:01:02;6.60;99.90
15564;DHT22;7883;52.554;13.364;2023-02-23T08:03:29;6.60;99.90
15564;DHT22;7883;52.554;13.364;2023-02-23T08:05:56;6.60;99.90
15564;DHT22;7883;52.554;13.364;2023-02-23T08:08:23;6.60;99.90
15564;DHT22;7883;52.554;13.364;2023-02-23T08:10:50;6.60;99.90
15564;DHT22;7883;52.554;13.364;2023-02-23T08:13:17;6.70;99.90
15564;DHT22;7883;52.554;13.364;2023-02-23T08:15:44;6.70;99.90
15564;DHT22;7883;52.554;13.364;2023-02-23T08:18:12;6.80;99.90
15564;DHT22;7883;52.554;13.364;2023-02-23T08:20:39;6.90;99.90
15564;DHT22;7883;52.554;13.364;2023-02-23T08:23:06;6.90;99.90
15564;DHT22;7883;52.554;13.364;2023-02-23T08:25:34;6.90;99.90
15564;DHT22;7883;52.554;13.364;2023-02-23T08:28:01;6.90;99.90
15564;DHT22;7883;52.554;13.364;2023-02-23T08:30:30;6.90;99.90
15564;DHT22;7883;52.554;13.364;2023-02-23T08:32:59;7.00;99.90
15564;DHT22;7883;52.554;13.364;2023-02-23T08:35:28;7.00;99.90
15564;DHT22;7883;52.554;13.364;2023-02-23T08:37:56;7.00;99.90
15564;DHT22;7883;52.554;13.364;2023-02-23T08:40:25;7.00;99.90
15564;DHT22;7883;52.554;13.364;2023-02-23T08:42:52;7.10;99.90
15564;DHT22;7883;52.554;13.364;2023-02-23T08:45:19;7.20;99.90
15564;DHT22;7883;52.554;13.364;2023-02-23T08:47:46;7.20;99.90
15564;DHT22;7883;52.554;13.364;2023-02-23T08:50:13;7.20;99.90
15564;DHT22;7883;52.554;13.364;2023-02-23T08:52:42;7.20;99.90
15564;DHT22;7883;52.554;13.364;2023-02-23T08:55:09;7.20;99.90
15564;DHT22;7883;52.554;13.364;2023-02-23T08:57:38;7.20;99.90
15564;DHT22;7883;52.554;13.364;2023-02-23T09:00:06;7.30;99.90
15564;DHT22;7883;52.554;13.364;2023-02-23T09:02:39;7.30;99.90
15564;DHT22;7883;52.554;13.364;2023-02-23T09:05:07;7.40;99.90
15564;DHT22;7883;52.554;13.364;2023-02-23T09:07:34;7.40;99.90
15564;DHT22;7883;52.554;13.364;2023-02-23T09:10:04;7.30;99.90
15564;DHT22;7883;52.554;13.364;2023-02-23T09:12:31;7.30;99.90
15564;DHT22;7883;52.554;13.364;2023-02-23T09:14:58;7.40;99.90
15564;DHT22;7883;52.554;13.364;2023-02-23T09:17:26;7.50;99.90
15564;DHT22;7883;52.554;13.364;2023-02-23T09:19:54;7.60;99.90
15564;DHT22;7883;52.554;13.364;2023-02-23T09:22:20;7.60;99.90
15564;DHT22;7883;52.554;13.364;2023-02-23T09:24:47;7.60;99.90
15564;DHT22;7883;52.554;13.364;2023-02-23T09:27:16;7.70;99.90
15564;DHT22;7883;52.554;13.364;2023-02-23T09:29:43;7.70;99.90
15564;DHT22;7883;52.554;13.364;2023-02-23T09:32:10;7.80;99.90
15564;DHT22;7883;52.554;13.364;2023-02-23T09:34:37;7.80;99.90
15564;DHT22;7883;52.554;13.364;2023-02-23T09:37:06;7.70;99.90
15564;DHT22;7883;52.554;13.364;2023-02-23T09:39:33;7.60;99.90
15564;DHT22;7883;52.554;13.364;2023-02-23T09:42:10;7.60;99.90
15564;DHT22;7883;52.554;13.364;2023-02-23T09:44:53;7.60;99.90
15564;DHT22;7883;52.554;13.364;2023-02-23T09:47:31;7.70;99.90
15564;DHT22;7883;52.554;13.364;2023-02-23T09:50:19;7.80;99.90
15564;DHT22;7883;52.554;13.364;2023-02-23T09:52:52;7.90;99.90
15564;DHT22;7883;52.554;13.364;2023-02-23T09:55:20;8.00;99.90
15564;DHT22;7883;52.554;13.364;2023-02-23T09:57:48;8.00;99.90
15564;DHT22;7883;52.554;13.364;2023-02-23T10:00:21;8.10;99.90
15564;DHT22;7883;52.554;13.364;2023-02-23T10:03:05;8.20;99.90
15564;DHT22;7883;52.554;13.364;2023-02-23T10:05:39;8.20;99.90
15564;DHT22;7883;52.554;13.364;2023-02-23T10:08:23;8.40;99.90
15564;DHT22;7883;52.554;13.364;2023-02-23T10:11:01;8.50;99.90
15564;DHT22;7883;52.554;13.364;2023-02-23T10:13:37;8.50;99.90
15564;DHT22;7883;52.554;13.364;2023-02-23T10:16:17;8.50;99.90
15564;DHT22;7883;52.554;13.364;2023-02-23T10:18:53;8.60;99.90
15564;DHT22;7883;52.554;13.364;2023-02-23T10:21:27;8.60;99.90
15564;DHT22;7883;52.554;13.364;2023-02-23T10:24:02;8.70;99.90
15564;DHT22;7883;52.554;13.364;2023-02-23T10:26:37;8.70;99.90
15564;DHT22;7883;52.554;13.364;2023-02-23T10:29:18;8.70;99.90
15564;DHT22;7883;52.554;13.364;2023-02-23T10:31:50;8.90;99.90
15564;DHT22;7883;52.554;13.364;2023-02-23T10:34:17;8.90;99.90
15564;DHT22;7883;52.554;13.364;2023-02-23T10:36:49;8.90;99.90
15564;DHT22;7883;52.554;13.364;2023-02-23T10:39:17;8.90;99.90
15564;DHT22;7883;52.554;13.364;2023-02-23T10:41:44;9.10;99.90
15564;DHT22;7883;52.554;13.364;2023-02-23T10:44:17;9.10;99.90
15564;DHT22;7883;52.554;13.364;2023-02-23T10:46:52;9.20;99.90
15564;DHT22;7883;52.554;13.364;2023-02-23T10:49:21;9.30;99.90
15564;DHT22;7883;52.554;13.364;2023-02-23T10:51:50;9.40;99.90
15564;DHT22;7883;52.554;13.364;2023-02-23T10:54:37;9.60;99.90
15564;DHT22;7883;52.554;13.364;2023-02-23T10:57:10;9.60;99.90
15564;DHT22;7883;52.554;13.364;2023-02-23T11:00:06;9.60;99.90
15564;DHT22;7883;52.554;13.364;2023-02-23T11:02:36;9.60;99.90
15564;DHT22;7883;52.554;13.364;2023-02-23T11:05:04;9.70;99.90
15564;DHT22;7883;52.554;13.364;2023-02-23T11:07:33;9.70;99.90
15564;DHT22;7883;52.554;13.364;2023-02-23T11:10:24;9.70;99.90
15564;DHT22;7883;52.554;13.364;2023-02-23T11:12:51;9.70;99.90
15564;DHT22;7883;52.554;13.364;2023-02-23T11:15:26;9.70;99.90
15564;DHT22;7883;52.554;13.364;2023-02-23T11:17:56;9.80;99.90
15564;DHT22;7883;52.554;13.364;2023-02-23T11:20:28;9.70;99.90
15564;DHT22;7883;52.554;13.364;2023-02-23T11:22:56;9.80;99.90
15564;DHT22;7883;52.554;13.364;2023-02-23T11:25:27;9.90;99.90
15564;DHT22;7883;52.554;13.364;2023-02-23T11:27:56;9.90;99.90
15564;DHT22;7883;52.554;13.364;2023-02-23T11:30:26;10.00;99.90
15564;DHT22;7883;52.554;13.364;2023-02-23T11:32:58;10.00;99.90
15564;DHT22;7883;52.554;13.364;2023-02-23T11:35:30;10.10;99.90
15564;DHT22;7883;52.554;13.364;2023-02-23T11:37:57;10.20;99.90
15564;DHT22;7883;52.554;13.364;2023-02-23T11:40:26;10.30;99.90
15564;DHT22;7883;52.554;13.364;2023-02-23T11:42:54;10.40;99.90
15564;DHT22;7883;52.554;13.364;2023-02-23T11:45:23;10.30;99.90
15564;DHT22;7883;52.554;13.364;2023-02-23T11:47:52;10.30;99.90
15564;DHT22;7883;52.554;13.364;2023-02-23T11:50:27;10.40;99.90
15564;DHT22;7883;52.554;13.364;2023-02-23T11:52:59;10.40;99.90
15564;DHT22;7883;52.554;13.364;2023-02-23T11:55:28;10.40;99.90
15564;DHT22;7883;52.554;13.364;2023-02-23T11:58:07;10.50;99.90
15564;DHT22;7883;52.554;13.364;2023-02-23T12:00:35;10.50;99.90
15564;DHT22;7883;52.554;13.364;2023-02-23T12:03:03;10.60;99.90
15564;DHT22;7883;52.554;13.364;2023-02-23T12:05:32;10.70;99.90
15564;DHT22;7883;52.554;13.364;2023-02-23T12:08:03;10.80;99.90
15564;DHT22;7883;52.554;13.364;2023-02-23T12:10:36;10.80;99.90
15564;DHT22;7883;52.554;13.364;2023-02-23T12:13:15;10.90;99.90
15564;DHT22;7883;52.554;13.364;2023-02-23T12:15:49;10.90;99.90
15564;DHT22;7883;52.554;13.364;2023-02-23T12:18:33;11.00;99.90
15564;DHT22;7883;52.554;13.364;2023-02-23T12:21:23;11.00;99.90
15564;DHT22;7883;52.554;13.364;2023-02-23T12:23:58;11.00;99.90
15564;DHT22;7883;52.554;13.364;2023-02-23T12:26:27;11.10;99.90
15564;DHT22;7883;52.554;13.364;2023-02-23T12:28:59;11.10;99.90
15564;DHT22;7883;52.554;13.364;2023-02-23T12:31:35;11.10;99.90
15564;DHT22;7883;52.554;13.364;2023-02-23T12:34:10;11.00;99.90
15564;DHT22;7883;52.554;13.364;2023-02-23T12:36:44;11.00;99.90
15564;DHT22;7883;52.554;13.364;2023-02-23T12:39:18;11.00;99.90
15564;DHT22;7883;52.554;13.364;2023-02-23T12:41:54;11.10;99.90
15564;DHT22;7883;52.554;13.364;2023-02-23T12:44:31;11.10;99.90
15564;DHT22;7883;52.554;13.364;2023-02-23T12:47:03;11.10;99.90
15564;DHT22;7883;52.554;13.364;2023-02-23T12:49:36;11.20;99.90
15564;DHT22;7883;52.554;13.364;2023-02-23T12:52:11;11.20;99.90
15564;DHT22;7883;52.554;13.364;2023-02-23T12:54:41;11.30;99.90
15564;DHT22;7883;52.554;13.364;2023-02-23T12:57:16;11.30;99.90
15564;DHT22;7883;52.554;13.364;2023-02-23T13:00:12;11.40;99.90
15564;DHT22;7883;52.554;13.364;2023-02-23T13:03:12;11.40;99.90
15564;DHT22;7883;52.554;13.364;2023-02-23T13:06:49;11.30;99.90
15564;DHT22;7883;52.554;13.364;2023-02-23T13:09:42;11.40;99.90
15564;DHT22;7883;52.554;13.364;2023-02-23T13:12:32;11.50;99.90
15564;DHT22;7883;52.554;13.364;2023-02-23T13:15:14;11.60;99.90
15564;DHT22;7883;52.554;13.364;2023-02-23T13:17:47;11.70;99.90
15564;DHT22;7883;52.554;13.364;2023-02-23T13:20:21;11.70;99.90
15564;DHT22;7883;52.554;13.364;2023-02-23T13:22:56;11.70;99.90
15564;DHT22;7883;52.554;13.364;2023-02-23T13:25:29;11.70;99.90
15564;DHT22;7883;52.554;13.364;2023-02-23T13:28:02;11.70;99.90
15564;DHT22;7883;52.554;13.364;2023-02-23T13:30:30;11.70;99.90
15564;DHT22;7883;52.554;13.364;2023-02-23T13:32:59;11.70;99.90
15564;DHT22;7883;52.554;13.364;2023-02-23T13:35:30;11.70;99.90
15564;DHT22;7883;52.554;13.364;2023-02-23T13:38:07;11.60;99.90
15564;DHT22;7883;52.554;13.364;2023-02-23T13:40:41;11.60;99.90
15564;DHT22;7883;52.554;13.364;2023-02-23T13:43:16;11.70;99.90
15564;DHT22;7883;52.554;13.364;2023-02-23T13:46:03;11.70;99.90
15564;DHT22;7883;52.554;13.364;2023-02-23T13:48:48;11.50;99.90
15564;DHT22;7883;52.554;13.364;2023-02-23T13:51:22;11.40;99.90
15564;DHT22;7883;52.554;13.364;2023-02-23T13:54:00;11.40;99.90
15564;DHT22;7883;52.554;13.364;2023-02-23T13:56:31;11.40;99.90
15564;DHT22;7883;52.554;13.364;2023-02-23T13:59:03;11.40;99.90
15564;DHT22;7883;52.554;13.364;2023-02-23T14:01:32;11.30;99.90
15564;DHT22;7883;52.554;13.364;2023-02-23T14:04:04;11.30;99.90
15564;DHT22;7883;52.554;13.364;2023-02-23T14:06:33;11.30;99.90
15564;DHT22;7883;52.554;13.364;2023-02-23T14:09:08;11.30;99.90
15564;DHT22;7883;52.554;13.364;2023-02-23T14:11:45;11.20;99.90
15564;DHT22;7883;52.554;13.364;2023-02-23T14:14:36;11.20;99.90
15564;DHT22;7883;52.554;13.364;2023-02-23T14:17:09;11.20;99.90
15564;DHT22;7883;52.554;13.364;2023-02-23T14:19:39;11.10;99.90
15564;DHT22;7883;52.554;13.364;2023-02-23T14:22:09;11.10;99.90
15564;DHT22;7883;52.554;13.364;2023-02-23T14:24:40;11.10;99.90
15564;DHT22;7883;52.554;13.364;2023-02-23T14:27:31;11.10;99.90
15564;DHT22;7883;52.554;13.364;2023-02-23T14:30:42;11.00;99.90
15564;DHT22;7883;52.554;13.364;2023-02-23T14:33:33;11.00;99.90
15564;DHT22;7883;52.554;13.364;2023-02-23T14:36:02;10.90;99.90
15564;DHT22;7883;52.554;13.364;2023-02-23T14:38:50;11.00;99.90
15564;DHT22;7883;52.554;13.364;2023-02-23T14:41:28;11.00;99.90
15564;DHT22;7883;52.554;13.364;2023-02-23T14:43:58;11.00;99.90
15564;DHT22;7883;52.554;13.364;2023-02-23T14:46:28;11.00;99.90
15564;DHT22;7883;52.554;13.364;2023-02-23T14:48:59;10.90;99.90
15564;DHT22;7883;52.554;13.364;2023-02-23T14:51:38;11.00;99.90
15564;DHT22;7883;52.554;13.364;2023-02-23T14:54:10;11.00;99.90
15564;DHT22;7883;52.554;13.364;2023-02-23T14:56:50;11.00;99.90
15564;DHT22;7883;52.554;13.364;2023-02-23T14:59:18;11.00;99.90
15564;DHT22;7883;52.554;13.364;2023-02-23T15:01:47;11.10;99.90
15564;DHT22;7883;52.554;13.364;2023-02-23T15:04:17;11.10;99.90
15564;DHT22;7883;52.554;13.364;2023-02-23T15:06:45;11.10;99.90
15564;DHT22;7883;52.554;13.364;2023-02-23T15:09:16;11.00;99.90
15564;DHT22;7883;52.554;13.364;2023-02-23T15:11:48;11.00;99.90
15564;DHT22;7883;52.554;13.364;2023-02-23T15:14:19;11.00;99.90
15564;DHT22;7883;52.554;13.364;2023-02-23T15:16:48;11.00;99.90
15564;DHT22;7883;52.554;13.364;2023-02-23T15:19:16;11.00;99.90
15564;DHT22;7883;52.554;13.364;2023-02-23T15:21:49;11.00;99.90
15564;DHT22;7883;52.554;13.364;2023-02-23T15:24:21;11.00;99.90
15564;DHT22;7883;52.554;13.364;2023-02-23T15:26:50;10.90;99.90
15564;DHT22;7883;52.554;13.364;2023-02-23T15:29:19;10.90;99.90
15564;DHT22;7883;52.554;13.364;2023-02-23T15:31:48;10.80;99.90
15564;DHT22;7883;52.554;13.364;2023-02-23T15:34:17;10.80;99.90
15564;DHT22;7883;52.554;13.364;2023-02-23T15:36:48;10.80;99.90
15564;DHT22;7883;52.554;13.364;2023-02-23T15:39:19;10.80;99.90
15564;DHT22;7883;52.554;13.364;2023-02-23T15:41:47;10.80;99.90
15564;DHT22;7883;52.554;13.364;2023-02-23T15:44:20;10.80;99.90
15564;DHT22;7883;52.554;13.364;2023-02-23T15:46:51;10.70;99.90
15564;DHT22;7883;52.554;13.364;2023-02-23T15:49:20;10.70;99.90
15564;DHT22;7883;52.554;13.364;2023-02-23T15:51:49;10.70;99.90
15564;DHT22;7883;52.554;13.364;2023-02-23T15:54:19;10.70;99.90
15564;DHT22;7883;52.554;13.364;2023-02-23T15:56:48;10.70;99.90
15564;DHT22;7883;52.554;13.364;2023-02-23T15:59:20;10.70;99.90
15564;DHT22;7883;52.554;13.364;2023-02-23T16:01:51;10.60;99.90
15564;DHT22;7883;52.554;13.364;2023-02-23T16:04:21;10.60;99.90
15564;DHT22;7883;52.554;13.364;2023-02-23T16:06:50;10.60;99.90
15564;DHT22;7883;52.554;13.364;2023-02-23T16:09:26;10.60;99.90
15564;DHT22;7883;52.554;13.364;2023-02-23T16:11:55;10.60;99.90
15564;DHT22;7883;52.554;13.364;2023-02-23T16:14:24;10.60;99.90
15564;DHT22;7883;52.554;13.364;2023-02-23T16:16:53;10.60;99.90
15564;DHT22;7883;52.554;13.364;2023-02-23T16:19:20;10.50;99.90